HOURLY OBS INDEX

008

Central West

ALLANOOKA AG STATION

Site: 008LNO
Alt: 150m
46km SE of GERALDTON


  Time     Wind        Temp  DP   Baro     Rain since   Rain past  Vis(m), Cloud(base in m), Weather
  local        km/h                         9am  last   hr   10m    
Fri 21:00    C  0/  2  15.0 13.5  ------    0.2   0.0   0.0   0.0   ----- 
Fri 22:00    N  2/  2  15.4 14.1  ------    0.2   0.0   0.0   0.0   ----- 
Fri 22:30  NNW  4/  6  14.1 13.1  ------    0.2   0.0  ----   0.0   ----- 
Fri 23:00   NW  2/  2  13.7 13.0  ------    0.2   0.0   0.0   0.0   ----- 
Fri 23:30   NW  2/  4  13.5 12.9  ------    0.2   0.0   0.0   0.0   ----- 
Sat 00:00   NW  4/  6  13.8 13.4  ------    0.2   0.0   0.0   0.0   ----- 
Sat 00:30   NW  4/  6  13.3 12.8  ------    0.2   0.0   0.0   0.0   ----- 
Sat 01:00    W  4/  6  13.6 12.8  ------    0.2   0.0   0.0   0.0   ----- 
Sat 01:30  WNW  4/  6  12.9 11.9  ------    0.2   0.0   0.0   0.0   ----- 

BINDI BINDI AG STATION

Site: 008IBI
Alt: 300m
33km ENE of MOORA


  Time     Wind        Temp  DP   Baro     Rain since   Rain past  Vis(m), Cloud(base in m), Weather
  local        km/h                         9am  last   hr   10m    
Fri 21:00  WSW  6/  9  14.5 13.5  ------    0.0   0.0   0.0   0.0   ----- 
Fri 21:30   SW  4/  9  14.1 13.6  ------    0.0   0.0   0.0   0.0   ----- 
Fri 22:00  WSW  4/  7  13.4 13.1  ------    0.0   0.0   0.0   0.0   ----- 
Fri 22:30   SW  4/  9  13.4 13.4  ------    0.0   0.0   0.0   0.0   ----- 
Fri 23:00   SW  6/ 11  13.0 13.0  ------    0.0   0.0   0.0   0.0   ----- 
Fri 23:30   SW  4/  7  12.4 12.4  ------    0.0   0.0   0.0   0.0   ----- 
Sat 00:00   SW  2/  4  12.3 12.3  ------    0.0   0.0   0.0   0.0   ----- 
Sat 00:30   SW  7/ 11  12.6 12.6  ------    0.0   0.0   0.0   0.0   ----- 
Sat 01:00  WNW  2/  7  13.0 13.0  ------    0.0   0.0   0.0   0.0   ----- 
Sat 01:30    W  2/  6  12.3 12.3  ------    0.0   0.0   0.0   0.0   ----- 

BINNU AG STATION

Site: 008GBI
Alt: 277 m
82km N of GERALDTON


  Time     Wind        Temp  DP   Baro     Rain since   Rain past  Vis(m), Cloud(base in m), Weather
  local        km/h                         9am  last   hr   10m    
Fri 21:00   SW 11/ 13  13.4 12.9  ------    0.6   0.0   0.0   0.0   ----- 
Fri 21:30   SW 11/ 11  12.9 12.4  ------    0.6   0.0   0.0   0.0   ----- 
Fri 22:00   SW 11/ 15  13.0 12.8  ------    0.6   0.0   0.0   0.0   ----- 
Fri 22:30   SW  9/ 11  12.0 11.5  ------    0.6   0.0   0.0   0.0   ----- 
Fri 23:00   SW  9/ 11  11.1 10.7  ------    0.6   0.0   0.0   0.0   ----- 
Fri 23:30    S  2/  4  11.0 10.9  ------    0.6   0.0   0.0   0.0   ----- 
Sat 00:00  WNW  4/  6  11.9 11.8  ------    0.6   0.0   0.0   0.0   ----- 
Sat 00:30    N  4/  6  12.8 12.8  ------    0.6   0.0   0.0   0.0   ----- 
Sat 01:00    N  2/  2  12.9 12.8  ------    0.6   0.0   0.0   0.0   ----- 
Sat 01:30   SW  2/  2  12.1 12.0  ------    0.6   0.0   0.0   0.0   ----- 

CANNA EAST AG STATION

Site: 008NAE
Alt: 340m
60km SE of MULLEWA


  Time     Wind        Temp  DP   Baro     Rain since   Rain past  Vis(m), Cloud(base in m), Weather
  local        km/h                         9am  last   hr   10m    
Fri 21:00  WSW  9/ 15  16.1 11.9  ------    0.0   0.0   0.0   0.0   ----- 
Fri 21:30  WSW  7/ 13  15.4 12.7  ------    0.0   0.0   0.0   0.0   ----- 
Fri 22:00   SW  6/  9  14.8 12.6  ------    0.0   0.0   0.0   0.0   ----- 
Fri 22:30   SW  4/  7  14.3 12.5  ------    0.0   0.0   0.0   0.0   ----- 
Fri 23:00  WSW  6/ 11  14.2 12.5  ------    0.0   0.0   0.0   0.0   ----- 
Fri 23:30   SW  2/  6  13.2 11.7  ------    0.0   0.0   0.0   0.0   ----- 
Sat 00:00   SW  4/  6  13.1 11.6  ------    0.0   0.0   0.0   0.0   ----- 
Sat 00:30   SW  2/  4  12.3 10.8  ------    0.0   0.0   0.0   0.0   ----- 
Sat 01:00   SW  2/  4  12.4 11.1  ------    0.0   0.0   0.0   0.0   ----- 
Sat 01:30    C  0/  2  12.2 10.9  ------    0.0   0.0   0.0   0.0   ----- 

CHAPMAN VALLEY AG STATION

Site: 008GCH
Alt: 191 m
39km NE of GERALDTON


  Time     Wind        Temp  DP   Baro     Rain since   Rain past  Vis(m), Cloud(base in m), Weather
  local        km/h                         9am  last   hr   10m    
Fri 21:00  SSE  2/  7  14.1 13.5  ------    0.0   0.0   0.0   0.0   ----- 
Fri 21:30    C  0/  2  13.2 12.4  ------    0.0   0.0   0.0   0.0   ----- 
Fri 22:00    C  0/  4  12.0 11.5  ------    0.0   0.0   0.0   0.0   ----- 
Fri 22:30    C  0/  2  11.7 11.3  ------    0.0   0.0   0.0   0.0   ----- 
Fri 23:00    C  0/  4  11.1 10.7  ------    0.0   0.0   0.0   0.0   ----- 
Fri 23:30  SSE  2/  7  11.2 10.4  ------    0.0   0.0   0.0   0.0   ----- 
Sat 00:00    C  0/  4   9.9  9.7  ------    0.0   0.0   0.0   0.0   ----- 
Sat 00:30    C  0/  2   9.6  9.4  ------    0.0   0.0   0.0   0.0   ----- 
Sat 01:00    C  0/  2  10.0  9.9  ------    0.0   0.0   0.0   0.0   ----- 
Sat 01:30    C  0/  0   9.8  9.7  ------    0.0   0.0   0.0   0.0   ----- 

COOROW AG STATION

Site: 008ORW
Alt: 280m
28km SSE of CARNAMAH


  Time     Wind        Temp  DP   Baro     Rain since   Rain past  Vis(m), Cloud(base in m), Weather
  local        km/h                         9am  last   hr   10m    
Fri 21:00   SW  6/  7  14.2 12.7  ------    0.0   0.0   0.0   0.0   ----- 
Fri 21:30  WSW  4/  7  13.6 12.4  ------    0.0   0.0   0.0   0.0   ----- 
Fri 22:00  WSW  6/  7  13.0 11.9  ------    0.0   0.0   0.0   0.0   ----- 
Fri 22:30   SW  4/  7  13.3 12.3  ------    0.0   0.0   0.0   0.0   ----- 
Fri 23:00  WSW  7/  9  12.6 11.7  ------    0.0   0.0   0.0   0.0   ----- 
Fri 23:30  WSW  4/  7  12.4 11.6  ------    0.0   0.0   0.0   0.0   ----- 
Sat 00:00    C  0/  4  12.0 11.2  ------    0.0   0.0   0.0   0.0   ----- 
Sat 00:30    N  2/  4  12.0 11.3  ------    0.0   0.0   0.0   0.0   ----- 
Sat 01:00  NNW  2/  4  12.5 11.8  ------    0.0   0.0   0.0   0.0   ----- 
Sat 01:30    C  0/  2  12.5 11.9  ------    0.0   0.0   0.0   0.0   ----- 

DALWALLINU

Site: 008297
Alt: 324.5m
76km ENE of MOORA


  Time     Wind        Temp  DP   Baro     Rain since   Rain past  Vis(m), Cloud(base in m), Weather
  local        km/h                         9am  last   hr   10m    
Fri 21:00  WSW 13/ 20  16.3 11.5  1015.0    0.0   0.0   0.0   0.0   ----- 
Fri 21:30   SW 17/ 24  15.5 12.4  1014.9    0.0   0.0   0.0   0.0   ----- 
Fri 22:00   SW 15/ 20  15.2 12.9  1014.9    0.0   0.0   0.0   0.0   ----- 
Fri 22:30   SW 17/ 20  14.6 12.8  1015.0    0.0   0.0   0.0   0.0   ----- 
Fri 23:00   SW 13/ 20  14.0 12.4  1015.0    0.0   0.0   0.0   0.0   ----- 
Fri 23:30   SW 11/ 13  13.5 12.2  1014.7    0.0   0.0   0.0   0.0   ----- 
Sat 00:00  SSW 11/ 17  13.5 12.4  1014.3    0.0   0.0   0.0   0.0   ----- 
Sat 00:30  WSW  7/ 11  13.5 12.2  1014.2    0.0   0.0   0.0   0.0   ----- 
Sat 01:00    W 15/ 20  13.3 12.0  1014.0    0.0   0.0   0.0   0.0   ----- 
Sat 01:30    W 17/ 24  12.8 11.9  1014.0    0.0   0.0   0.0   0.0   ----- 
Sat 02:00    W 17/ 24  12.8 11.9  1013.9    0.0   0.0   0.0   0.0   ----- 

ENEABBA AG STATION

Site: 008NEA
Alt: 210m
56km WSW of CARNAMAH


  Time     Wind        Temp  DP   Baro     Rain since   Rain past  Vis(m), Cloud(base in m), Weather
  local        km/h                         9am  last   hr   10m    
Fri 21:00  SSW  4/  6  15.2 12.1  ------    0.0   0.0   0.0   0.0   ----- 
Fri 21:30  SSW  4/  6  14.7 12.1  ------    0.0   0.0   0.0   0.0   ----- 
Fri 22:00  SSW  4/  7  14.4 12.2  ------    0.0   0.0   0.0   0.0   ----- 
Fri 22:30  WSW  2/  6  14.3 12.0  ------    0.0   0.0   0.0   0.0   ----- 
Fri 23:00  NNW  2/  6  13.8 11.7  ------    0.0   0.0   0.0   0.0   ----- 
Fri 23:30  NNW  2/  4  13.5 11.6  ------    0.0   0.0   0.0   0.0   ----- 
Sat 00:00    N  2/  4  13.5 11.6  ------    0.0   0.0   0.0   0.0   ----- 
Sat 00:30    N  2/  4  13.5 11.5  ------    0.0   0.0   0.0   0.0   ----- 
Sat 01:00  NNE  4/  4  13.3 11.4  ------    0.0   0.0   0.0   0.0   ----- 
Sat 01:30  NNE  4/  4  13.5 11.7  ------    0.0   0.0   0.0   0.0   ----- 

ERADU AG STATION

Site: 008GER
Alt: 259 m
38km E of GERALDTON


  Time     Wind        Temp  DP   Baro     Rain since   Rain past  Vis(m), Cloud(base in m), Weather
  local        km/h                         9am  last   hr   10m    
Fri 21:00    C  0/  4  13.6 12.8  ------    0.0   0.0   0.0   0.0   ----- 
Fri 21:30    W  4/  6  12.4 11.9  ------    0.0   0.0   0.0   0.0   ----- 
Fri 22:00    W  2/  6  11.8 11.3  ------    0.0   0.0   0.0   0.0   ----- 
Fri 22:30    W  2/  6  11.6 11.1  ------    0.0   0.0   0.0   0.0   ----- 
Fri 23:00    W  4/  6  12.2 11.9  ------    0.0   0.0   0.0   0.0   ----- 
Fri 23:30    W  2/  4  11.5 11.1  ------    0.0   0.0   0.0   0.0   ----- 
Sat 00:00    W  2/  4  10.6 10.4  ------    0.0   0.0   0.0   0.0   ----- 
Sat 00:30    W  4/  6  10.6 10.4  ------    0.0   0.0   0.0   0.0   ----- 
Sat 01:00    C  0/  0  10.6 10.5  ------    0.0   0.0   0.0   0.0   ----- 
Sat 01:30    C  0/  2  10.3 10.0  ------    0.0   0.0   0.0   0.0   ----- 

ERANGY SPRINGS AG STATION

Site: 008RAS
Alt: 235m
65km E of GERALDTON


  Time     Wind        Temp  DP   Baro     Rain since   Rain past  Vis(m), Cloud(base in m), Weather
  local        km/h                         9am  last   hr   10m    
Fri 21:00    C  0/  2  13.0 12.2  ------    0.0   0.0   0.0   0.0   ----- 
Fri 21:30    C  0/  2  12.5 11.8  ------    0.0   0.0   0.0   0.0   ----- 
Fri 22:00  WSW  2/  4  12.7 12.1  ------    0.0   0.0   0.0   0.0   ----- 
Fri 22:30    W  2/  4  12.0 11.5  ------    0.0   0.0   0.0   0.0   ----- 
Fri 23:00    C  0/  0  11.8 11.4  ------    0.0   0.0   0.0   0.0   ----- 
Fri 23:30    C  0/  0  11.6 11.2  ------    0.0   0.0   0.0   0.0   ----- 
Sat 00:00    C  0/  0  11.5 11.2  ------    0.0   0.0   0.0   0.0   ----- 
Sat 00:30    C  0/  0  11.1 10.8  ------    0.0   0.0   0.0   0.0   ----- 
Sat 01:00    C  0/  0  11.3 11.0  ------    0.0   0.0   0.0   0.0   ----- 
Sat 01:30    C  0/  0  10.5 10.3  ------    0.0   0.0   0.0   0.0   ----- 

GERALDTON AIRPORT

Site: 008315
Alt: 29.7m
9km ESE of GERALDTON


  Time     Wind        Temp  DP   Baro     Rain since   Rain past  Vis(m), Cloud(base in m), Weather
  local        km/h                         9am  last   hr   10m    
Fri 21:00    C  0/  0  13.7 11.9  1015.2    0.0   0.0   0.0   0.0   10000 
Fri 21:30    C  0/  0  13.8 12.2  1015.2    0.0   0.0   0.0   0.0   10000 
Fri 21:52    C  0/  0  13.7 12.3  1015.3    0.0   0.0  ----   0.0    6000 
Fri 22:00  NNE  7/ 11  13.1 11.8  1015.2    0.0   0.0   0.0   0.0    7000 
Fri 22:09   NE  9/ 11  13.3 12.2  1015.2    0.0   0.0  ----   0.0   10000 
Fri 22:30    N 11/ 13  14.0 13.1  1015.2    0.0   0.0   0.0   0.0   10000|SC 720 BR 870 
Fri 23:00    N  9/ 11  14.0 12.9  1015.1    0.0   0.0   0.0   0.0   10000|BR 780 BR 930 BR1290 
Fri 23:30    N  9/ 11  13.0 11.9  1014.9    0.0   0.0   0.0   0.0   10000|SC1380 
Sat 00:00  NNE 11/ 13  13.2 12.3  1014.5    0.0   0.0   0.0   0.0   10000|SC1320 
Sat 00:30  NNE 13/ 13  12.9 12.0  1014.3    0.0   0.0   0.0   0.0   10000 
Sat 01:00  NNE 13/ 15  12.7 11.8  1014.2    0.0   0.0   0.0   0.0   10000 
Sat 01:30  NNE 11/ 11  12.0 11.1  1013.9    0.0   0.0   0.0   0.0   10000 
Sat 02:00  NNE 15/ 20  11.6 10.8  1013.7    0.0   0.0   0.0   0.0   10000 

GUTHA WEST AG STATION

Site: 008TAW
Alt: 280m
65km SSE of MULLEWA


  Time     Wind        Temp  DP   Baro     Rain since   Rain past  Vis(m), Cloud(base in m), Weather
  local        km/h                         9am  last   hr   10m    
Fri 21:00  WSW  6/ 13  14.3 13.2  ------    0.0   0.0   0.0   0.0   ----- 
Fri 21:30  WSW  4/  7  13.3 12.5  ------    0.0   0.0   0.0   0.0   ----- 
Fri 22:00    W  4/  6  12.9 12.2  ------    0.0   0.0   0.0   0.0   ----- 
Fri 22:30   SW  4/  6  12.3 11.8  ------    0.0   0.0   0.0   0.0   ----- 
Fri 23:00  WSW  4/  6  11.9 11.3  ------    0.0   0.0   0.0   0.0   ----- 
Fri 23:30  WSW  4/  6  11.7 11.2  ------    0.0   0.0   0.0   0.0   ----- 
Sat 00:00    C  0/  2  11.4 11.1  ------    0.0   0.0   0.0   0.0   ----- 
Sat 00:30    C  0/  2  10.3  9.9  ------    0.0   0.0   0.0   0.0   ----- 
Sat 01:00    C  0/  2  10.9 10.8  ------    0.0   0.0   0.0   0.0   ----- 
Sat 01:30   SE  2/  4  10.7 10.6  ------    0.0   0.0   0.0   0.0   ----- 

LATHAM AG STATION

Site: 008THM
Alt: 300m
65km ESE of CARNAMAH


  Time     Wind        Temp  DP   Baro     Rain since   Rain past  Vis(m), Cloud(base in m), Weather
  local        km/h                         9am  last   hr   10m    
Fri 21:00  WSW  7/ 11  16.0  9.3  ------    0.0   0.0   0.0   0.0   ----- 
Fri 21:30  WSW  9/ 17  15.4 10.8  ------    0.0   0.0   0.0   0.0   ----- 
Fri 22:00  WSW  7/ 13  14.7 11.5  ------    0.0   0.0   0.0   0.0   ----- 
Fri 22:30   SW  4/  7  13.8 11.3  ------    0.0   0.0   0.0   0.0   ----- 
Fri 23:00    W  6/  7  13.4 11.4  ------    0.0   0.0   0.0   0.0   ----- 
Fri 23:30    W  4/  7  13.2 11.4  ------    0.0   0.0   0.0   0.0   ----- 
Sat 00:00   NW  4/  6  12.5 11.0  ------    0.0   0.0   0.0   0.0   ----- 
Sat 00:30  WNW  4/  6  12.0 10.6  ------    0.0   0.0   0.0   0.0   ----- 
Sat 01:00    W  4/  7  11.7 10.5  ------    0.0   0.0   0.0   0.0   ----- 
Sat 01:30    W  2/  6  12.0 11.0  ------    0.0   0.0   0.0   0.0   ----- 

MINGENEW

Site: 008GMI
Alt: 295.0m
12km SW of MINGENEW


  Time     Wind        Temp  DP   Baro     Rain since   Rain past  Vis(m), Cloud(base in m), Weather
  local        km/h                         9am  last   hr   10m    
Fri 21:00    C  0/  4  12.1 11.4  ------    0.0   0.0   0.0   0.0   ----- 
Fri 21:30  SSE  2/  4  11.0 10.4  ------    0.0   0.0   0.0   0.0   ----- 
Fri 22:00  SSW  2/  4  12.2 11.6  ------    0.0   0.0   0.0   0.0   ----- 
Fri 22:30  SSW  2/  6  13.2 12.6  ------    0.0   0.0   0.0   0.0   ----- 
Fri 23:00  SSW  2/  6  12.2 11.6  ------    0.0   0.0   0.0   0.0   ----- 
Fri 23:30  SSW  4/  6  12.3 11.8  ------    0.0   0.0   0.0   0.0   ----- 
Sat 00:00  SSW  2/  4  11.4 10.9  ------    0.0   0.0   0.0   0.0   ----- 
Sat 00:30  SSW  2/  6  10.1  9.6  ------    0.0   0.0   0.0   0.0   ----- 
Sat 01:00    C  0/  4  10.2  9.7  ------    0.0   0.0   0.0   0.0   ----- 
Sat 01:30    C  0/  2  10.8 10.4  ------    0.0   0.0   0.0   0.0   ----- 

MOORA AG STATION

Site: 008GMZ
Alt: m
km of


  Time     Wind        Temp  DP   Baro     Rain since   Rain past  Vis(m), Cloud(base in m), Weather
  local        km/h                         9am  last   hr   10m    
Fri 21:00    C  0/  2  13.6 12.2  ------    0.0   0.0   0.0   0.0   ----- 
Fri 21:30    C  0/  0  13.0 11.9  ------    0.0   0.0   0.0   0.0   ----- 
Fri 22:00  WNW  6/  7  12.0 11.0  ------    0.0   0.0   0.0   0.0   ----- 
Fri 22:30    W  2/  4  11.2 10.3  ------    0.0   0.0   0.0   0.0   ----- 
Fri 23:00  NNW  6/  9  12.6 11.9  ------    0.0   0.0   0.0   0.0   ----- 
Fri 23:30    W  4/  6  13.3 12.6  ------    0.0   0.0   0.0   0.0   ----- 
Sat 00:00   SW  2/  4  13.1 12.4  ------    0.0   0.0   0.0   0.0   ----- 
Sat 00:30   SW  4/  4  11.6 10.9  ------    0.0   0.0   0.0   0.0   ----- 
Sat 01:00  WNW  6/  9  11.9 11.3  ------    0.0   0.0   0.0   0.0   ----- 
Sat 01:30   NW  6/  7  12.3 11.7  ------    0.0   0.0   0.0   0.0   ----- 

MORAWA AG STATION

Site: 008GMO
Alt: m
km of


  Time     Wind        Temp  DP   Baro     Rain since   Rain past  Vis(m), Cloud(base in m), Weather
  local        km/h                         9am  last   hr   10m    
Fri 21:00  WSW 13/ 20  15.5 13.3  ------    0.0   0.0   0.0   0.0   ----- 
Fri 21:30  WSW  9/ 13  15.0 13.0  ------    0.0   0.0   0.0   0.0   ----- 
Fri 22:00    W  7/ 11  14.2 12.7  ------    0.0   0.0   0.0   0.0   ----- 
Fri 22:30  WSW  7/ 11  14.1 12.9  ------    0.0   0.0   0.0   0.0   ----- 
Fri 23:00    W  7/ 11  14.0 12.9  ------    0.0   0.0   0.0   0.0   ----- 
Fri 23:30    W  7/ 11  13.7 12.7  ------    0.0   0.0   0.0   0.0   ----- 
Sat 00:00    W  6/  9  13.6 12.7  ------    0.0   0.0   0.0   0.0   ----- 
Sat 00:30    W  4/  7  13.3 12.5  ------    0.0   0.0   0.0   0.0   ----- 
Sat 01:00    W  4/  7  13.0 12.3  ------    0.0   0.0   0.0   0.0   ----- 
Sat 01:30    W  2/  6  12.8 12.1  ------    0.0   0.0   0.0   0.0   ----- 

MORAWA AIRPORT

Site: 008296
Alt: 271.4m
145km ESE of GERALDTON


  Time     Wind        Temp  DP   Baro     Rain since   Rain past  Vis(m), Cloud(base in m), Weather
  local        km/h                         9am  last   hr   10m    
Fri 21:00   SW  9/ 13  15.9 14.8  1015.3    0.0   0.0   0.0   0.0   ----- 
Fri 21:30  WSW  7/ 11  15.6 14.8  1015.3    0.0   0.0   0.0   0.0   ----- 
Fri 22:00  WSW  6/  9  15.0 14.8  1015.3    0.0   0.0   0.0   0.0   ----- 
Fri 22:30  WSW  7/ 11  14.7 14.7  1015.3    0.0   0.0   0.0   0.0   ----- 
Fri 23:00    W  6/ 11  14.3 14.3  1015.3    0.0   0.0   0.0   0.0   ----- 
Fri 23:30  WSW  7/ 13  14.3 14.3  1015.1    0.0   0.0   0.0   0.0   ----- 
Sat 00:00  WSW  6/ 11  14.3 14.3  1015.0    0.0   0.0   0.0   0.0   ----- 
Sat 00:30    W  4/  7  13.7 13.7  1015.1    0.0   0.0   0.0   0.0   ----- 
Sat 01:00    W  6/  6  13.3 13.3  1014.9    0.0   0.0   0.0   0.0   ----- 
Sat 01:30  WSW  4/  7  13.0 13.0  1014.6    0.0   0.0   0.0   0.0   ----- 
Sat 02:00    W  4/  4  12.6 12.6  1014.4    0.0   0.0   0.0   0.0   ----- 

MULLEWA AG STATION

Site: 008GMU
Alt: m
92km ENE of GERALDTON


  Time     Wind        Temp  DP   Baro     Rain since   Rain past  Vis(m), Cloud(base in m), Weather
  local        km/h                         9am  last   hr   10m    
Fri 21:00    S  4/  7  15.2 13.0  ------    0.0   0.0   0.0   0.0   ----- 
Fri 21:30    C  0/  2  13.5 11.7  ------    0.0   0.0   0.0   0.0   ----- 
Fri 22:00    C  0/  2  12.9 11.3  ------    0.0   0.0   0.0   0.0   ----- 
Fri 22:30    C  0/  0  11.5  9.8  ------    0.0   0.0   0.0   0.0   ----- 
Fri 23:00    C  0/  2  12.6 11.1  ------    0.0   0.0   0.0   0.0   ----- 
Fri 23:30    C  0/  2  11.4  9.9  ------    0.0   0.0   0.0   0.0   ----- 
Sat 00:00    C  0/  2  11.8 10.4  ------    0.0   0.0   0.0   0.0   ----- 
Sat 00:30    C  0/  2  11.8 10.6  ------    0.0   0.0   0.0   0.0   ----- 
Sat 01:00    C  0/  2  11.0  9.9  ------    0.0   0.0   0.0   0.0   ----- 
Sat 01:30    C  0/  0  10.9  9.9  ------    0.0   0.0   0.0   0.0   ----- 

MURESK AG STATION

Site: 008GMK
Alt: 116.0m
8km SSE of NORTHAM


  Time     Wind        Temp  DP   Baro     Rain since   Rain past  Vis(m), Cloud(base in m), Weather
  local        km/h                         9am  last   hr   10m    
Fri 21:00  WSW  7/  7  14.5 11.6  ------    0.0   0.0   0.0   0.0   ----- 
Fri 21:30  WSW  4/  6  14.1 11.5  ------    0.0   0.0   0.0   0.0   ----- 
Fri 22:00    W  4/  7  13.7 11.5  ------    0.0   0.0   0.0   0.0   ----- 
Fri 22:30  WSW  7/ 11  13.6 11.9  ------    0.0   0.0   0.0   0.0   ----- 
Fri 23:00    W  7/ 15  13.4 11.9  ------    0.0   0.0   0.0   0.0   ----- 
Fri 23:30  WSW  7/ 11  13.1 11.7  ------    0.0   0.0   0.0   0.0   ----- 
Sat 00:00    W  7/ 11  13.0 11.9  ------    0.0   0.0   0.0   0.0   ----- 
Sat 00:30  WNW  4/  7  12.7 11.6  ------    0.0   0.0   0.0   0.0   ----- 
Sat 01:00    C  0/  2  12.7 11.8  ------    0.0   0.0   0.0   0.0   ----- 
Sat 01:30   NE  2/  6  12.4 11.6  ------    0.0   0.0   0.0   0.0   ----- 
Sat 02:00    E  4/  7  12.0 11.2  ------    0.0   0.0   0.0   0.0   ----- 

NORTH ISLAND

Site: 008290
Alt: 2.2m
113km WNW of GERALDTON


  Time     Wind        Temp  DP   Baro     Rain since   Rain past  Vis(m), Cloud(base in m), Weather
  local        km/h                         9am  last   hr   10m    
Fri 21:00   SW 15/ 19  18.2 12.0  1015.6    0.0   0.0   0.0   0.0   ----- 
Fri 21:30   SW 13/ 17  18.1 11.9  1015.6    0.0   0.0   0.0   0.0   ----- 
Fri 22:00  WSW 13/ 19  18.5 12.0  1015.6    0.0   0.0   0.0   0.0   ----- 
Fri 22:30  WSW 11/ 13  17.6 11.4  1015.6    0.0   0.0   0.0   0.0   ----- 
Fri 23:00  WSW  9/ 13  17.2 11.7  1015.5    0.0   0.0   0.0   0.0   ----- 
Fri 23:30    C  0/  0  16.5 11.4  1015.1    0.0   0.0   0.0   0.0   ----- 
Sat 00:00  WSW  7/  9  15.5 10.7  1014.8    0.0   0.0   0.0   0.0   ----- 
Sat 00:30    W 13/ 17  17.1 12.2  1014.5    0.0   0.0   0.0   0.0   ----- 
Sat 01:00    W 15/ 17  17.7 12.2  1014.4    0.0   0.0   0.0   0.0   ----- 
Sat 01:30    W 13/ 17  17.6 11.9  1014.1    0.0   0.0   0.0   0.0   ----- 
Sat 02:00    W 15/ 19  17.9 12.6  1013.8    0.0   0.0   0.0   0.0   ----- 

PERENJORI AG STATION

Site: 008NJA
Alt: 300m
49km NE of CARNAMAH


  Time     Wind        Temp  DP   Baro     Rain since   Rain past  Vis(m), Cloud(base in m), Weather
  local        km/h                         9am  last   hr   10m    
Fri 21:00   SW 11/ 19  16.6 12.8  ------    0.0   0.0   0.0   0.0   ----- 
Fri 21:30  WSW  7/ 19  15.9 12.9  ------    0.0   0.0   0.0   0.0   ----- 
Fri 22:00  SSW  4/  7  15.1 12.6  ------    0.0   0.0   0.0   0.0   ----- 
Fri 22:30   SW  2/  6  14.4 12.2  ------    0.0   0.0   0.0   0.0   ----- 
Fri 23:00  WSW  2/  6  14.1 12.2  ------    0.0   0.0   0.0   0.0   ----- 
Fri 23:30    C  0/  2  13.7 11.9  ------    0.0   0.0   0.0   0.0   ----- 
Sat 00:00    C  0/  4  13.7 12.0  ------    0.0   0.0   0.0   0.0   ----- 
Sat 00:30    C  0/  2  13.7 12.0  ------    0.0   0.0   0.0   0.0   ----- 
Sat 01:00  WSW  2/  4  13.3 11.7  ------    0.0   0.0   0.0   0.0   ----- 
Sat 01:30    W  2/  6  13.1 11.6  ------    0.0   0.0   0.0   0.0   ----- 

THREE SPRINGS AG STATION

Site: 008RES
Alt: 250m
19km NNW of CARNAMAH


  Time     Wind        Temp  DP   Baro     Rain since   Rain past  Vis(m), Cloud(base in m), Weather
  local        km/h                         9am  last   hr   10m    
Fri 21:00   SW  6/  9  14.6 13.2  ------    0.0   0.0   0.0   0.0   ----- 
Fri 21:30   SW  4/  7  14.1 12.9  ------    0.0   0.0   0.0   0.0   ----- 
Fri 22:00    W  4/  6  13.4 12.3  ------    0.0   0.0   0.0   0.0   ----- 
Fri 22:30    W  4/  6  13.3 12.3  ------    0.0   0.0   0.0   0.0   ----- 
Fri 23:00    W  4/  9  13.5 12.4  ------    0.0   0.0   0.0   0.0   ----- 
Fri 23:30  WNW  2/  4  13.8 12.6  ------    0.0   0.0   0.0   0.0   ----- 
Sat 00:00    W  2/  6  12.9 11.8  ------    0.0   0.0   0.0   0.0   ----- 
Sat 00:30  WSW  4/  6  12.7 11.8  ------    0.0   0.0   0.0   0.0   ----- 
Sat 01:00    C  0/  2  12.6 11.7  ------    0.0   0.0   0.0   0.0   ----- 
Sat 01:30    C  0/  0  11.7 10.9  ------    0.0   0.0   0.0   0.0   ----- 

WARRADARGE EAST AG STATION

Site: 008RDE
Alt: 300m
33km NE of JURIEN BAY


  Time     Wind        Temp  DP   Baro     Rain since   Rain past  Vis(m), Cloud(base in m), Weather
  local        km/h                         9am  last   hr   10m    
Fri 21:00    C  0/  2  13.3 12.2  ------    0.0   0.0   0.0   0.0   ----- 
Fri 21:30  WSW  4/  7  13.3 12.3  ------    0.0   0.0   0.0   0.0   ----- 
Fri 22:00   SW  2/  4  12.7 11.7  ------    0.0   0.0   0.0   0.0   ----- 
Fri 22:30  WSW  2/  4  12.2 11.3  ------    0.0   0.0   0.0   0.0   ----- 
Fri 23:00   SW  2/  4  11.8 11.0  ------    0.0   0.0   0.0   0.0   ----- 
Fri 23:30    C  0/  2  11.7 10.9  ------    0.0   0.0   0.0   0.0   ----- 
Sat 00:00    C  0/  2  11.1 10.4  ------    0.0   0.0   0.0   0.0   ----- 
Sat 00:30    C  0/  0  11.2 10.5  ------    0.0   0.0   0.0   0.0   ----- 
Sat 01:00    C  0/  2  10.9 10.2  ------    0.0   0.0   0.0   0.0   ----- 
Sat 01:30    C  0/  2  11.0 10.4  ------    0.0   0.0   0.0   0.0   ----- 

WATHEROO AG STATION

Site: 008TRO
Alt: 250m
37km N of MOORA


  Time     Wind        Temp  DP   Baro     Rain since   Rain past  Vis(m), Cloud(base in m), Weather
  local        km/h                         9am  last   hr   10m    
Fri 21:00    C  0/  4  14.2 13.0  ------    0.0   0.0   0.0   0.0   ----- 
Fri 21:30  SSE  2/  4  13.9 13.1  ------    0.0   0.0   0.0   0.0   ----- 
Fri 22:00  SSE  2/  4  13.5 12.9  ------    0.0   0.0   0.0   0.0   ----- 
Fri 22:30    S  2/  6  13.4 13.0  ------    0.0   0.0   0.0   0.0   ----- 
Fri 23:00   SE  2/  4  12.9 12.6  ------    0.0   0.0   0.0   0.0   ----- 
Fri 23:30    S  2/  6  12.7 12.6  ------    0.0   0.0   0.0   0.0   ----- 
Sat 00:00  SSW  4/  6  12.7 12.7  ------    0.0   0.0   0.0   0.0   ----- 
Sat 00:30  WSW  2/  4  12.3 12.3  ------    0.0   0.0   0.0   0.0   ----- 
Sat 01:00    S  2/  7  13.7 13.7  ------    0.0   0.0   0.0   0.0   ----- 
Sat 01:30    C  0/  2  13.4 13.4  ------    0.0   0.0   0.0   0.0   ----- 

WONGAN HILLS AG STATION

Site: 008GWH
Alt: m
km of


  Time     Wind        Temp  DP   Baro     Rain since   Rain past  Vis(m), Cloud(base in m), Weather
  local        km/h                         9am  last   hr   10m    
Fri 21:00   SW  6/ 15  15.2 11.9  ------    0.0   0.0   0.0   0.0   ----- 
Fri 21:30   SW  7/ 13  14.6 11.8  ------    0.0   0.0   0.0   0.0   ----- 
Fri 22:00   SW  6/  7  13.8 11.5  ------    0.0   0.0   0.0   0.0   ----- 
Fri 22:30  WSW  4/  9  13.7 11.8  ------    0.0   0.0   0.0   0.0   ----- 
Fri 23:00  WSW  6/  7  13.4 12.1  ------    0.0   0.0   0.0   0.0   ----- 
Fri 23:30  WSW  6/ 11  13.5 13.1  ------    0.0   0.0   0.0   0.0   ----- 
Sat 00:00  WSW  6/ 11  13.1 13.0  ------    0.0   0.0   0.0   0.0   ----- 
Sat 00:30  WSW  6/  9  13.1 13.1  ------    0.0   0.0   0.0   0.0   ----- 
Sat 01:00  WSW  7/ 17  13.4 13.4  ------    0.0   0.0   0.0   0.0   ----- 
Sat 01:30  WSW  7/ 15  13.3 13.3  ------    0.0   0.0   0.0   0.0   -----